Time;durP1;ratioP1;P1;durP2;ratioP2;P2;SDS_P1;SDS_P2;PMS_P1;PMS_P2;Temp;Humidity;BMP_temperature;BMP_pressure;BME280_temperature;BME280_humidity;BME280_pressure;Samples;Min_cycle;Max_cycle;Signal;HPM_P1;HPM_P2
2021/03/05 00:00:22;;;;;;;;;;;10.50;71.80;;;;;;5011594;28;74461;-63
2021/03/05 00:02:48;;;;;;;;;;;10.50;71.60;;;;;;5008727;27;75572;-62
2021/03/05 00:05:14;;;;;;;;;;;10.40;71.90;;;;;;5011107;28;74769;-67
2021/03/05 00:07:39;;;;;;;;;;;10.40;71.80;;;;;;5009807;28;77538;-62
2021/03/05 00:10:09;;;;;;;;;;;10.40;71.60;;;;;;5009470;27;76426;-66
2021/03/05 00:12:34;;;;;;;;;;;10.40;71.50;;;;;;5009093;27;76039;-68
2021/03/05 00:15:00;;;;;;;;;;;10.40;71.40;;;;;;5010401;27;74983;-71
2021/03/05 00:17:26;;;;;;;;;;;10.40;71.40;;;;;;5010582;28;74963;-65
2021/03/05 00:19:51;;;;;;;;;;;10.40;71.30;;;;;;5010538;27;75111;-62
2021/03/05 00:22:17;;;;;;;;;;;10.40;71.30;;;;;;5008940;28;74728;-64
2021/03/05 00:24:43;;;;;;;;;;;10.40;71.40;;;;;;5008731;28;77172;-63
2021/03/05 00:27:08;;;;;;;;;;;10.40;71.40;;;;;;5010427;27;75030;-66
2021/03/05 00:29:34;;;;;;;;;;;10.40;71.20;;;;;;5010611;28;75031;-67
2021/03/05 00:32:00;;;;;;;;;;;10.40;71.10;;;;;;5010522;27;75650;-72
2021/03/05 00:34:25;;;;;;;;;;;10.40;71.10;;;;;;5010729;28;75746;-67
2021/03/05 00:36:51;;;;;;;;;;;10.30;71.20;;;;;;5010332;27;75137;-71
2021/03/05 00:39:16;;;;;;;;;;;10.30;71.30;;;;;;5010938;28;74938;-65
2021/03/05 00:41:42;;;;;;;;;;;10.30;71.50;;;;;;5010312;28;75177;-65
2021/03/05 00:44:08;;;;;;;;;;;10.30;71.40;;;;;;5010296;27;74417;-68
2021/03/05 00:46:33;;;;;;;;;;;10.30;71.40;;;;;;5010683;28;74415;-68
2021/03/05 00:48:59;;;;;;;;;;;10.20;71.50;;;;;;5008812;28;75293;-67
2021/03/05 00:51:25;;;;;;;;;;;10.30;71.60;;;;;;5010347;28;75157;-74
2021/03/05 00:53:51;;;;;;;;;;;10.20;71.40;;;;;;5010377;27;75562;-67
2021/03/05 00:56:17;;;;;;;;;;;10.20;71.60;;;;;;5008458;28;78517;-67
2021/03/05 00:58:43;;;;;;;;;;;10.20;71.60;;;;;;5008870;28;75447;-63
2021/03/05 01:01:09;;;;;;;;;;;10.20;71.70;;;;;;5008043;27;76397;-60
2021/03/05 01:03:34;;;;;;;;;;;10.10;71.60;;;;;;5008874;28;77743;-60
2021/03/05 01:06:00;;;;;;;;;;;10.20;71.70;;;;;;5009769;27;75164;-61
2021/03/05 01:08:26;;;;;;;;;;;10.20;71.70;;;;;;5008541;28;75782;-61
2021/03/05 01:10:51;;;;;;;;;;;10.10;71.70;;;;;;5009922;28;75180;-62
2021/03/05 01:13:17;;;;;;;;;;;10.10;71.70;;;;;;5009739;27;77012;-61
2021/03/05 01:15:43;;;;;;;;;;;10.10;71.80;;;;;;5010078;28;75187;-64
2021/03/05 01:18:08;;;;;;;;;;;10.10;71.80;;;;;;5009908;27;75491;-64
2021/03/05 01:20:35;;;;;;;;;;;10.10;71.70;;;;;;5008414;28;74654;-65
2021/03/05 01:23:01;;;;;;;;;;;10.10;71.80;;;;;;5009891;27;75062;-63
2021/03/05 01:25:30;;;;;;;;;;;10.10;71.90;;;;;;5009798;28;74510;-70
2021/03/05 01:27:55;;;;;;;;;;;10.10;71.80;;;;;;5009104;28;75316;-65
2021/03/05 01:30:21;;;;;;;;;;;10.00;71.80;;;;;;5009355;27;75708;-63
2021/03/05 01:32:47;;;;;;;;;;;10.00;71.90;;;;;;5008084;27;77070;-67
2021/03/05 01:35:17;;;;;;;;;;;10.00;72.10;;;;;;5009908;27;77484;-63
2021/03/05 01:37:43;;;;;;;;;;;9.90;72.10;;;;;;5009582;28;75607;-61
2021/03/05 01:40:10;;;;;;;;;;;9.90;71.90;;;;;;5007508;28;77541;-61
2021/03/05 01:42:36;;;;;;;;;;;10.00;71.70;;;;;;5007916;28;74624;-61
2021/03/05 01:45:03;;;;;;;;;;;10.00;71.20;;;;;;5009824;28;74482;-71
2021/03/05 01:47:29;;;;;;;;;;;10.00;70.90;;;;;;5009335;27;75070;-67
2021/03/05 01:49:54;;;;;;;;;;;10.00;70.70;;;;;;5009578;28;74418;-66
2021/03/05 01:52:20;;;;;;;;;;;10.00;70.40;;;;;;5009092;27;75661;-66
2021/03/05 01:54:45;;;;;;;;;;;10.00;70.20;;;;;;5009213;28;75590;-68
2021/03/05 01:57:11;;;;;;;;;;;10.00;70.20;;;;;;5007371;27;74825;-71
2021/03/05 01:59:37;;;;;;;;;;;10.00;70.10;;;;;;5007781;28;76435;-70
2021/03/05 02:02:06;;;;;;;;;;;10.00;69.80;;;;;;5008792;28;75205;-64
2021/03/05 02:04:33;;;;;;;;;;;10.00;69.60;;;;;;5009124;27;75097;-63
2021/03/05 02:06:59;;;;;;;;;;;10.00;69.50;;;;;;5007486;28;74490;-61
2021/03/05 02:09:25;;;;;;;;;;;10.00;69.40;;;;;;5008962;27;75132;-64
2021/03/05 02:11:50;;;;;;;;;;;9.90;69.30;;;;;;5007367;28;77230;-62
2021/03/05 02:14:16;;;;;;;;;;;9.90;69.20;;;;;;5008801;28;75189;-61
2021/03/05 02:17:00;;;;;;;;;;;9.90;69.10;;;;;;5009321;28;74284;-62
2021/03/05 02:19:41;;;;;;;;;;;9.90;69.00;;;;;;5007423;27;75801;-60
2021/03/05 02:22:10;;;;;;;;;;;10.00;68.60;;;;;;5007049;28;77729;-61
2021/03/05 02:24:54;;;;;;;;;;;10.00;68.30;;;;;;5007479;28;76988;-61
2021/03/05 02:27:39;;;;;;;;;;;10.00;68.10;;;;;;5008376;27;75068;-67
2021/03/05 02:30:07;;;;;;;;;;;10.00;68.00;;;;;;5007152;27;74420;-64
2021/03/05 02:32:52;;;;;;;;;;;10.00;68.00;;;;;;5006798;28;78300;-68
2021/03/05 02:35:17;;;;;;;;;;;10.00;67.90;;;;;;5008975;28;74396;-66
2021/03/05 02:37:48;;;;;;;;;;;10.00;67.90;;;;;;5008341;27;74478;-65
2021/03/05 02:40:28;;;;;;;;;;;10.00;67.80;;;;;;5011584;27;77002;-64
2021/03/05 02:42:56;;;;;;;;;;;10.00;67.70;;;;;;5010460;28;76706;-63
2021/03/05 02:45:23;;;;;;;;;;;10.00;67.60;;;;;;5010241;28;77992;-64
2021/03/05 02:47:52;;;;;;;;;;;10.00;67.30;;;;;;5011648;28;75233;-63
2021/03/05 02:50:18;;;;;;;;;;;10.00;67.30;;;;;;5009982;28;76421;-68
2021/03/05 02:52:45;;;;;;;;;;;10.00;67.30;;;;;;5010311;28;77421;-64
2021/03/05 02:55:11;;;;;;;;;;;10.00;67.30;;;;;;5009867;28;77878;-70
2021/03/05 02:57:41;;;;;;;;;;;10.00;67.20;;;;;;5010424;28;77240;-67
2021/03/05 03:00:08;;;;;;;;;;;10.00;67.20;;;;;;5011799;28;74897;-65
2021/03/05 03:02:34;;;;;;;;;;;10.00;67.20;;;;;;5011101;27;75185;-67
2021/03/05 03:05:00;;;;;;;;;;;10.00;67.10;;;;;;5011672;28;74491;-68
2021/03/05 03:07:26;;;;;;;;;;;9.90;67.10;;;;;;5011750;27;74539;-64
2021/03/05 03:09:52;;;;;;;;;;;9.90;67.10;;;;;;5011937;28;75136;-70
2021/03/05 03:12:18;;;;;;;;;;;9.90;67.10;;;;;;5009606;28;75652;-69
2021/03/05 03:14:45;;;;;;;;;;;9.90;67.10;;;;;;5011727;28;74664;-70
2021/03/05 03:17:12;;;;;;;;;;;9.90;67.10;;;;;;5009701;28;77666;-73
2021/03/05 03:19:39;;;;;;;;;;;9.90;67.00;;;;;;5009745;28;77096;-71
2021/03/05 03:22:05;;;;;;;;;;;9.90;67.00;;;;;;5011922;28;74501;-65
2021/03/05 03:24:31;;;;;;;;;;;9.90;67.00;;;;;;5009420;27;75941;-68
2021/03/05 03:26:57;;;;;;;;;;;9.90;67.10;;;;;;5010091;28;74759;-67
2021/03/05 03:29:23;;;;;;;;;;;9.90;67.10;;;;;;5011138;27;75251;-70
2021/03/05 03:31:48;;;;;;;;;;;9.90;67.10;;;;;;5009624;27;76334;-68
2021/03/05 03:34:14;;;;;;;;;;;9.90;67.10;;;;;;5011325;28;75190;-62
2021/03/05 03:36:40;;;;;;;;;;;9.90;67.10;;;;;;5009481;28;77715;-71
2021/03/05 03:39:07;;;;;;;;;;;9.90;67.00;;;;;;5011654;28;74385;-71
2021/03/05 03:41:33;;;;;;;;;;;9.90;67.00;;;;;;5010500;27;74508;-66
2021/03/05 03:43:59;;;;;;;;;;;9.90;66.90;;;;;;5009679;28;74600;-72
2021/03/05 03:46:24;;;;;;;;;;;9.90;67.00;;;;;;5009293;27;77125;-71
2021/03/05 03:48:53;;;;;;;;;;;9.90;66.90;;;;;;5010640;28;75147;-68
2021/03/05 03:51:21;;;;;;;;;;;9.90;66.80;;;;;;5010764;28;75490;-64
2021/03/05 03:53:47;;;;;;;;;;;9.90;66.70;;;;;;5010980;27;74519;-62
2021/03/05 03:56:13;;;;;;;;;;;9.90;66.70;;;;;;5010738;28;75336;-67
2021/03/05 03:58:40;;;;;;;;;;;9.80;66.90;;;;;;5011037;27;74559;-66
2021/03/05 04:01:11;;;;;;;;;;;9.80;67.00;;;;;;5010178;28;75702;-63
2021/03/05 04:03:38;;;;;;;;;;;9.80;67.10;;;;;;5010574;27;75579;-61
2021/03/05 04:06:05;;;;;;;;;;;9.80;67.10;;;;;;5009079;28;77079;-59
2021/03/05 04:08:34;;;;;;;;;;;9.80;67.10;;;;;;5010723;28;75617;-67
2021/03/05 04:11:00;;;;;;;;;;;9.70;67.10;;;;;;5010659;27;75946;-61
2021/03/05 04:13:26;;;;;;;;;;;9.80;67.10;;;;;;5010726;28;75411;-63
2021/03/05 04:15:52;;;;;;;;;;;9.80;67.10;;;;;;5009351;28;77737;-71
2021/03/05 04:18:17;;;;;;;;;;;9.70;67.20;;;;;;5010880;28;75525;-66
2021/03/05 04:20:44;;;;;;;;;;;9.70;67.10;;;;;;5010566;27;74477;-68
2021/03/05 04:23:10;;;;;;;;;;;9.70;67.30;;;;;;5009124;28;76625;-71
2021/03/05 04:25:36;;;;;;;;;;;9.60;67.20;;;;;;5010369;28;75094;-72
2021/03/05 04:28:01;;;;;;;;;;;9.70;67.20;;;;;;5010568;28;74508;-69
2021/03/05 04:30:27;;;;;;;;;;;9.70;67.10;;;;;;5010430;28;75213;-68
2021/03/05 04:32:53;;;;;;;;;;;9.60;67.10;;;;;;5010670;27;74561;-71
2021/03/05 04:35:18;;;;;;;;;;;9.60;67.10;;;;;;5008967;28;76961;-70
2021/03/05 04:37:44;;;;;;;;;;;9.60;67.10;;;;;;5008881;28;75755;-66
2021/03/05 04:40:10;;;;;;;;;;;9.60;67.00;;;;;;5008351;28;77591;-64
2021/03/05 04:42:36;;;;;;;;;;;9.60;67.10;;;;;;5010528;28;75910;-66
2021/03/05 04:45:03;;;;;;;;;;;9.60;67.10;;;;;;5010118;27;75752;-68
2021/03/05 04:47:28;;;;;;;;;;;9.60;67.10;;;;;;5010584;28;74624;-64
2021/03/05 04:49:54;;;;;;;;;;;9.50;67.00;;;;;;5010158;27;75100;-69
2021/03/05 04:52:19;;;;;;;;;;;9.50;67.10;;;;;;5010165;28;75671;-63
2021/03/05 04:54:45;;;;;;;;;;;9.50;67.20;;;;;;5010448;28;74424;-71
2021/03/05 04:57:11;;;;;;;;;;;9.50;67.30;;;;;;5008420;27;75328;-65
2021/03/05 04:59:36;;;;;;;;;;;9.50;67.30;;;;;;5008661;27;76146;-62
2021/03/05 05:02:02;;;;;;;;;;;9.40;67.30;;;;;;5007069;28;75518;-70
2021/03/05 05:04:28;;;;;;;;;;;9.40;67.30;;;;;;5010391;28;74520;-70
2021/03/05 05:06:53;;;;;;;;;;;9.40;67.40;;;;;;5009857;27;75185;-67
2021/03/05 05:09:19;;;;;;;;;;;9.40;67.40;;;;;;5008394;28;77920;-67
2021/03/05 05:11:45;;;;;;;;;;;9.40;67.50;;;;;;5008218;28;77904;-68
2021/03/05 05:14:11;;;;;;;;;;;9.40;67.50;;;;;;5008654;28;76361;-67
2021/03/05 05:16:36;;;;;;;;;;;9.40;67.50;;;;;;5008455;28;75391;-65
2021/03/05 05:19:02;;;;;;;;;;;9.40;67.60;;;;;;5010049;27;74317;-66
2021/03/05 05:21:28;;;;;;;;;;;9.40;67.60;;;;;;5008423;28;77181;-65
2021/03/05 05:23:53;;;;;;;;;;;9.40;67.60;;;;;;5008106;27;76265;-69
2021/03/05 05:26:19;;;;;;;;;;;9.40;67.70;;;;;;5009425;27;77508;-65
2021/03/05 05:28:45;;;;;;;;;;;9.40;67.60;;;;;;5008387;28;77287;-64
2021/03/05 05:31:10;;;;;;;;;;;9.40;67.60;;;;;;5007940;27;76225;-65
2021/03/05 05:33:36;;;;;;;;;;;9.40;67.60;;;;;;5009524;28;75212;-65
2021/03/05 05:36:01;;;;;;;;;;;9.40;67.70;;;;;;5007792;28;77149;-67
2021/03/05 05:38:27;;;;;;;;;;;9.40;67.70;;;;;;5009670;28;75011;-67
2021/03/05 05:40:53;;;;;;;;;;;9.40;67.80;;;;;;5009218;28;75241;-63
2021/03/05 05:43:18;;;;;;;;;;;9.40;67.70;;;;;;5009173;27;75282;-62
2021/03/05 05:45:44;;;;;;;;;;;9.30;67.70;;;;;;5009404;28;75308;-63
2021/03/05 05:48:11;;;;;;;;;;;9.40;67.80;;;;;;5007802;27;74972;-63
2021/03/05 05:50:37;;;;;;;;;;;9.30;67.70;;;;;;5007794;27;75797;-62
2021/03/05 05:53:04;;;;;;;;;;;9.30;67.70;;;;;;5009578;27;74660;-68
2021/03/05 05:55:30;;;;;;;;;;;9.30;67.70;;;;;;5007464;28;78622;-64
2021/03/05 05:57:56;;;;;;;;;;;9.30;67.70;;;;;;5008159;28;77253;-61
2021/03/05 06:00:21;;;;;;;;;;;9.30;67.80;;;;;;5009013;27;75134;-62
2021/03/05 06:02:48;;;;;;;;;;;9.30;67.90;;;;;;5008747;28;74933;-62
2021/03/05 06:05:14;;;;;;;;;;;9.30;67.90;;;;;;5007103;28;76628;-63
2021/03/05 06:07:41;;;;;;;;;;;9.30;67.90;;;;;;5009309;28;75474;-65
2021/03/05 06:10:07;;;;;;;;;;;9.30;67.90;;;;;;5007167;27;76879;-61
2021/03/05 06:12:33;;;;;;;;;;;9.30;67.90;;;;;;5008054;28;77579;-61
2021/03/05 06:14:59;;;;;;;;;;;9.30;67.80;;;;;;5012257;28;75262;-62
2021/03/05 06:17:43;;;;;;;;;;;9.30;67.80;;;;;;5010458;28;75352;-65
2021/03/05 06:20:10;;;;;;;;;;;9.30;67.80;;;;;;5012278;28;74410;-64
2021/03/05 06:22:35;;;;;;;;;;;9.30;67.90;;;;;;5010331;28;77568;-67
2021/03/05 06:25:01;;;;;;;;;;;9.20;67.90;;;;;;5010480;28;77909;-61
2021/03/05 06:27:28;;;;;;;;;;;9.20;67.90;;;;;;5009749;27;75647;-65
2021/03/05 06:29:54;;;;;;;;;;;9.20;67.90;;;;;;5010744;27;77533;-69
2021/03/05 06:32:19;;;;;;;;;;;9.30;67.90;;;;;;5012748;27;76928;-67
2021/03/05 06:34:46;;;;;;;;;;;9.20;67.90;;;;;;5029568;27;74963;-63
2021/03/05 06:37:12;;;;;;;;;;;9.20;67.90;;;;;;5046678;27;76261;-63
2021/03/05 06:39:38;;;;;;;;;;;9.20;68.00;;;;;;5040260;27;76208;-64
2021/03/05 06:42:04;;;;;;;;;;;9.30;68.00;;;;;;5050543;27;76563;-64
2021/03/05 06:44:30;;;;;;;;;;;9.30;68.10;;;;;;5060423;27;75918;-63
2021/03/05 06:46:56;;;;;;;;;;;9.30;68.00;;;;;;5045664;27;75050;-65
2021/03/05 06:49:22;;;;;;;;;;;9.30;67.90;;;;;;5052154;27;77167;-64
2021/03/05 06:51:55;;;;;;;;;;;9.30;67.80;;;;;;5054393;27;76700;-65
2021/03/05 06:54:21;;;;;;;;;;;9.30;67.90;;;;;;5038651;27;76426;-64
2021/03/05 06:56:50;;;;;;;;;;;9.30;67.80;;;;;;5063002;27;76400;-64
2021/03/05 06:59:17;;;;;;;;;;;9.40;67.80;;;;;;5036408;27;76459;-66
2021/03/05 07:01:49;;;;;;;;;;;9.30;67.80;;;;;;5047924;27;75998;-65
2021/03/05 07:04:16;;;;;;;;;;;9.30;67.90;;;;;;5041488;27;75052;-65
2021/03/05 07:06:43;;;;;;;;;;;9.20;68.00;;;;;;5030509;27;76690;-65
2021/03/05 07:09:10;;;;;;;;;;;9.20;68.00;;;;;;5030245;27;77284;-65
2021/03/05 07:11:38;;;;;;;;;;;9.20;68.10;;;;;;5044625;27;78274;-65
2021/03/05 07:14:05;;;;;;;;;;;9.20;68.10;;;;;;5049599;27;75849;-62
2021/03/05 07:16:58;;;;;;;;;;;9.20;68.10;;;;;;5034120;27;76622;-65
2021/03/05 07:19:24;;;;;;;;;;;9.20;68.00;;;;;;5023010;27;76246;-62
2021/03/05 07:21:51;;;;;;;;;;;9.30;68.00;;;;;;5047090;27;77135;-62
2021/03/05 07:24:17;;;;;;;;;;;9.30;68.10;;;;;;5032865;27;78410;-67
2021/03/05 07:26:52;;;;;;;;;;;9.30;68.20;;;;;;5048229;27;77090;-62
2021/03/05 07:29:19;;;;;;;;;;;9.30;68.30;;;;;;5071989;27;75292;-64
2021/03/05 07:31:46;;;;;;;;;;;9.30;68.40;;;;;;5042199;27;76755;-67
2021/03/05 07:34:18;;;;;;;;;;;9.30;68.40;;;;;;5077436;27;77044;-68
2021/03/05 07:36:48;;;;;;;;;;;9.30;68.30;;;;;;5066475;27;76964;-62
2021/03/05 07:39:19;;;;;;;;;;;9.40;68.20;;;;;;5036944;27;76575;-65
2021/03/05 07:41:45;;;;;;;;;;;9.40;68.20;;;;;;5057792;27;75372;-63
2021/03/05 07:44:10;;;;;;;;;;;9.40;68.00;;;;;;5020746;27;76149;-66
2021/03/05 07:46:36;;;;;;;;;;;9.50;68.10;;;;;;5028147;27;77703;-65
2021/03/05 07:49:02;;;;;;;;;;;9.60;67.80;;;;;;5048559;27;76115;-69
2021/03/05 07:51:28;;;;;;;;;;;9.70;67.70;;;;;;5032289;27;76329;-67
2021/03/05 07:53:55;;;;;;;;;;;9.80;67.50;;;;;;5051811;27;75432;-69
2021/03/05 07:56:39;;;;;;;;;;;9.90;67.20;;;;;;5046845;27;75804;-64
2021/03/05 07:59:04;;;;;;;;;;;10.10;66.90;;;;;;5054423;27;78723;-63
2021/03/05 08:01:49;;;;;;;;;;;10.20;66.60;;;;;;5049908;27;75857;-64
2021/03/05 08:04:14;;;;;;;;;;;10.40;66.20;;;;;;5023386;27;76558;-70
2021/03/05 08:06:40;;;;;;;;;;;10.40;65.90;;;;;;5045277;27;76735;-71
2021/03/05 08:09:06;;;;;;;;;;;10.60;65.60;;;;;;5019483;27;77152;-66
2021/03/05 08:11:36;;;;;;;;;;;10.70;65.20;;;;;;5059365;27;77332;-68
2021/03/05 08:14:20;;;;;;;;;;;10.80;65.00;;;;;;5050353;27;76802;-75
2021/03/05 08:16:49;;;;;;;;;;;10.90;64.50;;;;;;5042742;27;78988;-67
2021/03/05 08:19:18;;;;;;;;;;;11.10;64.10;;;;;;5057067;27;77420;-71
2021/03/05 08:21:54;;;;;;;;;;;11.20;63.50;;;;;;5036309;27;76357;-67
2021/03/05 08:24:24;;;;;;;;;;;11.40;63.20;;;;;;5018755;27;76376;-66
2021/03/05 08:27:00;;;;;;;;;;;11.40;62.80;;;;;;5091987;27;76440;-66
2021/03/05 08:29:44;;;;;;;;;;;11.60;62.30;;;;;;5039709;27;76135;-69
2021/03/05 08:32:28;;;;;;;;;;;11.70;62.00;;;;;;5064590;27;76028;-67
2021/03/05 08:34:54;;;;;;;;;;;11.80;61.60;;;;;;5042406;27;75640;-66
2021/03/05 08:37:26;;;;;;;;;;;11.90;60.90;;;;;;5024966;27;76659;-68
2021/03/05 08:39:52;;;;;;;;;;;12.00;60.60;;;;;;5013867;27;77578;-63
2021/03/05 08:42:29;;;;;;;;;;;12.00;60.50;;;;;;5057794;27;76737;-65
2021/03/05 08:45:14;;;;;;;;;;;12.20;60.40;;;;;;5018803;27;76465;-66
2021/03/05 08:47:41;;;;;;;;;;;12.30;60.10;;;;;;5041172;27;76087;-62
2021/03/05 08:50:07;;;;;;;;;;;12.40;60.00;;;;;;5033741;27;76317;-67
2021/03/05 08:52:33;;;;;;;;;;;12.40;59.50;;;;;;5049253;27;77740;-65
2021/03/05 08:55:02;;;;;;;;;;;12.40;59.60;;;;;;5074924;27;77390;-65
2021/03/05 08:57:36;;;;;;;;;;;12.50;59.20;;;;;;5086760;27;77285;-63
2021/03/05 09:00:02;;;;;;;;;;;12.60;59.20;;;;;;5060981;27;77721;-63
2021/03/05 09:02:29;;;;;;;;;;;12.80;58.90;;;;;;5035340;27;78746;-62
2021/03/05 09:04:56;;;;;;;;;;;12.90;58.80;;;;;;5081412;27;94520;-69
2021/03/05 09:07:22;;;;;;;;;;;13.00;58.20;;;;;;5017471;27;76452;-61
2021/03/05 09:09:50;;;;;;;;;;;13.10;57.90;;;;;;5039771;27;77143;-65
2021/03/05 09:12:17;;;;;;;;;;;13.30;57.50;;;;;;5057491;27;76814;-72
2021/03/05 09:14:44;;;;;;;;;;;13.40;57.30;;;;;;5034331;27;75572;-66
2021/03/05 09:17:10;;;;;;;;;;;13.40;57.00;;;;;;5043413;27;77237;-64
2021/03/05 09:19:40;;;;;;;;;;;13.60;56.60;;;;;;5040206;27;77251;-66
2021/03/05 09:22:08;;;;;;;;;;;13.80;56.40;;;;;;5045281;27;76335;-71
2021/03/05 09:24:52;;;;;;;;;;;14.00;55.60;;;;;;5052966;27;75900;-68
2021/03/05 09:27:23;;;;;;;;;;;14.20;54.60;;;;;;5040172;27;75233;-66
2021/03/05 09:29:49;;;;;;;;;;;14.30;54.40;;;;;;5057581;27;79538;-64
2021/03/05 09:32:15;;;;;;;;;;;14.50;54.70;;;;;;5055434;27;76359;-68
2021/03/05 09:34:47;;;;;;;;;;;14.70;53.90;;;;;;5043702;27;77473;-64
2021/03/05 09:37:17;;;;;;;;;;;14.90;53.00;;;;;;5059502;27;77193;-61
2021/03/05 09:39:44;;;;;;;;;;;15.00;53.50;;;;;;5066977;27;76727;-61
2021/03/05 09:42:10;;;;;;;;;;;15.10;53.30;;;;;;5003617;27;76394;-67
2021/03/05 09:44:46;;;;;;;;;;;15.30;52.60;;;;;;5013859;27;76824;-64
2021/03/05 09:47:12;;;;;;;;;;;15.40;52.10;;;;;;5039697;27;75981;-66
2021/03/05 09:49:38;;;;;;;;;;;15.40;51.80;;;;;;5076750;27;77556;-60
2021/03/05 09:52:03;;;;;;;;;;;15.50;51.80;;;;;;5101448;27;76195;-65
2021/03/05 09:54:39;;;;;;;;;;;15.50;51.40;;;;;;5069939;27;75295;-64
2021/03/05 09:57:05;;;;;;;;;;;15.60;51.40;;;;;;5046621;27;76863;-70
2021/03/05 09:59:49;;;;;;;;;;;15.80;51.30;;;;;;4999061;27;76627;-70
2021/03/05 10:02:17;;;;;;;;;;;16.00;50.90;;;;;;5072979;27;77644;-69
2021/03/05 10:04:44;;;;;;;;;;;16.10;50.10;;;;;;5093980;27;76847;-71
2021/03/05 10:07:10;;;;;;;;;;;16.20;50.00;;;;;;5059359;27;76062;-72
2021/03/05 10:09:35;;;;;;;;;;;16.30;50.20;;;;;;5082338;27;76949;-68
2021/03/05 10:12:01;;;;;;;;;;;16.30;50.30;;;;;;5092867;27;78498;-69
2021/03/05 10:14:32;;;;;;;;;;;16.40;49.80;;;;;;5054881;27;77274;-68
2021/03/05 10:17:13;;;;;;;;;;;16.50;50.10;;;;;;4996971;27;75945;-66
2021/03/05 10:19:39;;;;;;;;;;;16.80;49.40;;;;;;4996855;27;77467;-63
2021/03/05 10:22:05;;;;;;;;;;;17.10;49.10;;;;;;5056888;27;76309;-65
2021/03/05 10:24:31;;;;;;;;;;;17.40;48.00;;;;;;4995836;27;76808;-64
2021/03/05 10:27:18;;;;;;;;;;;17.60;47.60;;;;;;4996747;27;77459;-67
2021/03/05 10:29:44;;;;;;;;;;;17.70;47.50;;;;;;4996252;27;76813;-66
2021/03/05 10:32:23;;;;;;;;;;;17.80;47.40;;;;;;5084380;27;76312;-67
2021/03/05 10:34:50;;;;;;;;;;;17.90;47.10;;;;;;5035195;27;75699;-65
2021/03/05 10:37:15;;;;;;;;;;;18.10;46.00;;;;;;5035648;27;75890;-65
2021/03/05 10:39:42;;;;;;;;;;;18.20;46.20;;;;;;4996574;27;76711;-65
2021/03/05 10:42:14;;;;;;;;;;;18.40;46.30;;;;;;5011862;27;77796;-63
2021/03/05 10:44:40;;;;;;;;;;;18.50;46.00;;;;;;5073003;27;77617;-65
2021/03/05 10:47:08;;;;;;;;;;;18.70;45.60;;;;;;5073739;27;75739;-63
2021/03/05 10:49:33;;;;;;;;;;;18.80;46.00;;;;;;5040649;27;75802;-65
2021/03/05 10:51:59;;;;;;;;;;;18.90;45.40;;;;;;5053875;27;76959;-62
2021/03/05 10:54:25;;;;;;;;;;;18.90;45.40;;;;;;5051347;27;76971;-67
2021/03/05 10:56:51;;;;;;;;;;;19.00;45.60;;;;;;5058807;27;76475;-73
2021/03/05 10:59:19;;;;;;;;;;;19.30;45.00;;;;;;5057078;27;76312;-77
2021/03/05 11:01:45;;;;;;;;;;;19.50;43.50;;;;;;5055629;27;75839;-75
2021/03/05 11:04:11;;;;;;;;;;;19.50;44.30;;;;;;5068747;27;76923;-74
2021/03/05 11:06:38;;;;;;;;;;;19.80;44.00;;;;;;5022482;27;75949;-70
2021/03/05 11:09:06;;;;;;;;;;;20.00;43.20;;;;;;5047834;27;76355;-70
2021/03/05 11:11:31;;;;;;;;;;;20.40;42.90;;;;;;5046503;27;76526;-67
2021/03/05 11:13:57;;;;;;;;;;;20.80;42.10;;;;;;5056039;27;75835;-64
2021/03/05 11:16:23;;;;;;;;;;;21.00;41.70;;;;;;5033439;27;76811;-67
2021/03/05 11:18:49;;;;;;;;;;;21.20;41.40;;;;;;5031470;27;75779;-69
2021/03/05 11:21:16;;;;;;;;;;;21.40;40.80;;;;;;5053913;27;75972;-66
2021/03/05 11:23:43;;;;;;;;;;;21.70;40.90;;;;;;5036702;27;76851;-68
2021/03/05 11:26:08;;;;;;;;;;;21.90;39.70;;;;;;5027309;27;76451;-64
2021/03/05 11:28:34;;;;;;;;;;;21.70;40.20;;;;;;5046385;27;76268;-68
2021/03/05 11:31:00;;;;;;;;;;;21.30;40.70;;;;;;5011223;27;77263;-67
2021/03/05 11:33:25;;;;;;;;;;;20.60;41.50;;;;;;5055281;27;75900;-70
2021/03/05 11:35:51;;;;;;;;;;;20.10;43.10;;;;;;5082949;27;76672;-72
2021/03/05 11:38:16;;;;;;;;;;;19.80;43.00;;;;;;5032916;27;76234;-64
2021/03/05 11:40:42;;;;;;;;;;;19.50;43.60;;;;;;5009065;27;76821;-67
2021/03/05 11:43:08;;;;;;;;;;;19.20;44.80;;;;;;5013400;27;76245;-63
2021/03/05 11:45:33;;;;;;;;;;;19.00;44.90;;;;;;5015832;27;76581;-66
2021/03/05 11:47:59;;;;;;;;;;;18.80;45.10;;;;;;5023209;27;77373;-77
2021/03/05 11:50:25;;;;;;;;;;;18.80;45.30;;;;;;5030279;27;75987;-73
2021/03/05 11:52:50;;;;;;;;;;;18.90;45.60;;;;;;5002336;27;76126;-78
2021/03/05 11:55:16;;;;;;;;;;;19.00;45.40;;;;;;5052900;27;76424;-76
2021/03/05 11:57:41;;;;;;;;;;;19.00;45.10;;;;;;5055672;27;77323;-71
2021/03/05 12:00:07;;;;;;;;;;;19.00;45.30;;;;;;5043143;27;76848;-78
2021/03/05 12:02:33;;;;;;;;;;;19.00;45.30;;;;;;5056160;27;75202;-71
2021/03/05 12:04:59;;;;;;;;;;;19.30;44.10;;;;;;5034500;27;77498;-74
2021/03/05 12:07:25;;;;;;;;;;;19.20;44.40;;;;;;5047119;27;74856;-76
2021/03/05 12:09:51;;;;;;;;;;;19.40;44.50;;;;;;5076511;27;76432;-74
2021/03/05 12:12:18;;;;;;;;;;;19.90;43.60;;;;;;5028014;27;77391;-67
2021/03/05 12:14:44;;;;;;;;;;;20.20;42.80;;;;;;5042585;27;76991;-68
2021/03/05 12:17:09;;;;;;;;;;;20.30;43.00;;;;;;5079924;27;77103;-67
2021/03/05 12:19:35;;;;;;;;;;;20.20;42.40;;;;;;5030227;27;76626;-69
2021/03/05 12:22:01;;;;;;;;;;;20.00;42.90;;;;;;5069097;27;77900;-70
2021/03/05 12:24:26;;;;;;;;;;;20.10;42.60;;;;;;5036220;27;75742;-65
2021/03/05 12:26:53;;;;;;;;;;;20.20;42.20;;;;;;5071519;27;76849;-66
2021/03/05 12:29:19;;;;;;;;;;;20.30;41.80;;;;;;5041716;27;75295;-64
2021/03/05 12:31:45;;;;;;;;;;;20.20;42.70;;;;;;5016457;27;76296;-67
2021/03/05 12:34:10;;;;;;;;;;;20.90;41.50;;;;;;5031416;27;75885;-70
2021/03/05 12:36:36;;;;;;;;;;;21.20;40.70;;;;;;5068370;27;76619;-67
2021/03/05 12:39:01;;;;;;;;;;;21.50;40.40;;;;;;5086316;27;76807;-62
2021/03/05 12:41:27;;;;;;;;;;;21.50;40.50;;;;;;5018794;27;78055;-76
2021/03/05 12:43:53;;;;;;;;;;;21.60;40.30;;;;;;5070519;27;76110;-73
2021/03/05 12:46:18;;;;;;;;;;;21.80;40.00;;;;;;5061357;27;78172;-75
2021/03/05 12:48:44;;;;;;;;;;;22.10;39.30;;;;;;5043879;27;76532;-75
2021/03/05 12:51:09;;;;;;;;;;;22.00;39.50;;;;;;5048325;27;76254;-78
2021/03/05 12:53:35;;;;;;;;;;;21.70;40.10;;;;;;5065091;27;76533;-69
2021/03/05 12:56:01;;;;;;;;;;;21.40;40.40;;;;;;5013191;27;76345;-65
2021/03/05 12:58:26;;;;;;;;;;;21.60;40.20;;;;;;5072222;27;76157;-72
2021/03/05 13:00:52;;;;;;;;;;;21.80;39.40;;;;;;5019304;27;76981;-66
2021/03/05 13:03:17;;;;;;;;;;;21.80;39.70;;;;;;5054265;27;76151;-69
2021/03/05 13:05:43;;;;;;;;;;;21.90;39.80;;;;;;5086317;27;77876;-63
2021/03/05 13:08:10;;;;;;;;;;;22.40;39.20;;;;;;5071373;27;76700;-68
2021/03/05 13:10:36;;;;;;;;;;;22.60;38.40;;;;;;5074249;27;77267;-68
2021/03/05 13:13:01;;;;;;;;;;;23.00;37.90;;;;;;5074300;27;75966;-75
2021/03/05 13:15:27;;;;;;;;;;;23.90;37.40;;;;;;5063840;27;76649;-63
2021/03/05 13:17:53;;;;;;;;;;;24.90;36.00;;;;;;5076172;27;76577;-70
2021/03/05 13:20:18;;;;;;;;;;;25.50;34.30;;;;;;5011421;27;77434;-66
2021/03/05 13:22:44;;;;;;;;;;;25.20;34.60;;;;;;5032598;27;76866;-64
2021/03/05 13:25:12;;;;;;;;;;;25.70;34.10;;;;;;5026230;27;76760;-76
2021/03/05 13:27:38;;;;;;;;;;;26.40;33.40;;;;;;5052291;27;77143;-73
2021/03/05 13:30:04;;;;;;;;;;;27.50;32.40;;;;;;5059793;27;76422;-74
2021/03/05 13:32:30;;;;;;;;;;;27.90;30.70;;;;;;5022009;27;76891;-65
2021/03/05 13:34:55;;;;;;;;;;;27.70;31.10;;;;;;5039695;27;75556;-66
2021/03/05 13:37:21;;;;;;;;;;;27.30;31.80;;;;;;5055942;27;76356;-77
2021/03/05 13:39:47;;;;;;;;;;;27.40;31.70;;;;;;5015557;27;75840;-77
2021/03/05 13:42:12;;;;;;;;;;;27.40;32.00;;;;;;5051312;27;76394;-76
2021/03/05 13:44:38;;;;;;;;;;;27.50;31.70;;;;;;5042307;27;76681;-76
2021/03/05 13:47:03;;;;;;;;;;;27.10;32.00;;;;;;5058919;27;76112;-78
2021/03/05 13:49:29;;;;;;;;;;;27.00;32.20;;;;;;5037757;27;77448;-71
2021/03/05 13:51:57;;;;;;;;;;;27.60;31.50;;;;;;5058532;27;76654;-70
2021/03/05 13:54:23;;;;;;;;;;;28.30;30.30;;;;;;5040404;27;76086;-68
2021/03/05 13:56:49;;;;;;;;;;;28.60;30.50;;;;;;5007534;27;77622;-78
2021/03/05 13:59:14;;;;;;;;;;;28.70;29.30;;;;;;5007837;28;75840;-77
2021/03/05 14:01:40;;;;;;;;;;;28.20;30.60;;;;;;5007484;27;74831;-77
2021/03/05 14:04:06;;;;;;;;;;;28.20;30.60;;;;;;5008986;27;77377;-68
2021/03/05 14:06:31;;;;;;;;;;;28.00;30.50;;;;;;5008981;28;75553;-71
2021/03/05 14:08:57;;;;;;;;;;;27.80;29.90;;;;;;5007864;27;74640;-71
2021/03/05 14:11:22;;;;;;;;;;;28.10;31.30;;;;;;5007778;28;76204;-65
2021/03/05 14:13:48;;;;;;;;;;;28.40;30.70;;;;;;5008908;28;75268;-67
2021/03/05 14:16:14;;;;;;;;;;;28.90;30.30;;;;;;5007762;28;74750;-70
2021/03/05 14:18:39;;;;;;;;;;;29.30;30.30;;;;;;5008776;27;75211;-66
2021/03/05 14:21:05;;;;;;;;;;;29.30;29.00;;;;;;5007378;28;75332;-68